sensor_id;sensor_type;location;lat;lon;timestamp;temperature;humidity
30764;DHT22;17497;51.476;7.770;2023-08-06T00:01:40;15.10;99.90
30764;DHT22;17497;51.476;7.770;2023-08-06T00:04:08;15.10;99.90
30764;DHT22;17497;51.476;7.770;2023-08-06T00:06:34;15.10;99.90
30764;DHT22;17497;51.476;7.770;2023-08-06T00:09:07;15.10;99.90
30764;DHT22;17497;51.476;7.770;2023-08-06T00:11:40;15.10;99.90
30764;DHT22;17497;51.476;7.770;2023-08-06T00:14:08;15.10;99.90
30764;DHT22;17497;51.476;7.770;2023-08-06T00:16:34;15.20;99.90
30764;DHT22;17497;51.476;7.770;2023-08-06T00:19:04;15.20;99.90
30764;DHT22;17497;51.476;7.770;2023-08-06T00:21:30;15.20;99.90
30764;DHT22;17497;51.476;7.770;2023-08-06T00:23:57;15.20;99.90
30764;DHT22;17497;51.476;7.770;2023-08-06T00:26:27;15.20;99.90
30764;DHT22;17497;51.476;7.770;2023-08-06T00:28:58;15.20;99.90
30764;DHT22;17497;51.476;7.770;2023-08-06T00:31:29;15.10;99.90
30764;DHT22;17497;51.476;7.770;2023-08-06T00:34:05;15.10;99.90
30764;DHT22;17497;51.476;7.770;2023-08-06T00:36:32;15.20;99.90
30764;DHT22;17497;51.476;7.770;2023-08-06T00:38:59;15.20;99.90
30764;DHT22;17497;51.476;7.770;2023-08-06T00:41:27;15.20;99.90
30764;DHT22;17497;51.476;7.770;2023-08-06T00:43:54;15.10;99.90
30764;DHT22;17497;51.476;7.770;2023-08-06T00:46:24;15.10;99.90
30764;DHT22;17497;51.476;7.770;2023-08-06T00:48:55;15.10;99.90
30764;DHT22;17497;51.476;7.770;2023-08-06T00:51:22;15.20;99.90
30764;DHT22;17497;51.476;7.770;2023-08-06T00:53:50;15.20;99.90
30764;DHT22;17497;51.476;7.770;2023-08-06T00:56:27;15.10;99.90
30764;DHT22;17497;51.476;7.770;2023-08-06T00:58:57;15.10;99.90
30764;DHT22;17497;51.476;7.770;2023-08-06T01:01:24;15.00;99.90
30764;DHT22;17497;51.476;7.770;2023-08-06T01:03:51;15.00;99.90
30764;DHT22;17497;51.476;7.770;2023-08-06T01:06:35;15.00;99.90
30764;DHT22;17497;51.476;7.770;2023-08-06T01:09:35;15.10;99.90
30764;DHT22;17497;51.476;7.770;2023-08-06T01:12:19;15.00;99.90
30764;DHT22;17497;51.476;7.770;2023-08-06T01:14:57;15.00;99.90
30764;DHT22;17497;51.476;7.770;2023-08-06T01:17:26;15.00;99.90
30764;DHT22;17497;51.476;7.770;2023-08-06T01:19:54;15.00;99.90
30764;DHT22;17497;51.476;7.770;2023-08-06T01:22:27;14.90;99.90
30764;DHT22;17497;51.476;7.770;2023-08-06T01:24:59;14.90;99.90
30764;DHT22;17497;51.476;7.770;2023-08-06T01:27:33;14.90;99.90
30764;DHT22;17497;51.476;7.770;2023-08-06T01:30:37;14.90;99.90
30764;DHT22;17497;51.476;7.770;2023-08-06T01:33:16;14.90;99.90
30764;DHT22;17497;51.476;7.770;2023-08-06T01:35:44;14.90;99.90
30764;DHT22;17497;51.476;7.770;2023-08-06T01:38:13;14.90;99.90
30764;DHT22;17497;51.476;7.770;2023-08-06T01:40:40;14.90;99.90
30764;DHT22;17497;51.476;7.770;2023-08-06T01:43:06;14.90;99.90
30764;DHT22;17497;51.476;7.770;2023-08-06T01:45:33;15.00;99.90
30764;DHT22;17497;51.476;7.770;2023-08-06T01:48:02;15.00;99.90
30764;DHT22;17497;51.476;7.770;2023-08-06T01:50:29;15.00;99.90
30764;DHT22;17497;51.476;7.770;2023-08-06T01:52:56;15.00;99.90
30764;DHT22;17497;51.476;7.770;2023-08-06T01:55:23;15.00;99.90
30764;DHT22;17497;51.476;7.770;2023-08-06T01:57:53;15.00;99.90
30764;DHT22;17497;51.476;7.770;2023-08-06T02:00:19;15.00;99.90
30764;DHT22;17497;51.476;7.770;2023-08-06T02:02:46;15.00;99.90
30764;DHT22;17497;51.476;7.770;2023-08-06T02:05:14;15.00;99.90
30764;DHT22;17497;51.476;7.770;2023-08-06T02:07:41;15.00;99.90
30764;DHT22;17497;51.476;7.770;2023-08-06T02:10:08;15.00;99.90
30764;DHT22;17497;51.476;7.770;2023-08-06T02:12:38;15.00;99.90
30764;DHT22;17497;51.476;7.770;2023-08-06T02:15:09;14.90;99.90
30764;DHT22;17497;51.476;7.770;2023-08-06T02:17:38;15.00;99.90
30764;DHT22;17497;51.476;7.770;2023-08-06T02:20:06;14.90;99.90
30764;DHT22;17497;51.476;7.770;2023-08-06T02:22:38;15.00;99.90
30764;DHT22;17497;51.476;7.770;2023-08-06T02:25:06;15.00;99.90
30764;DHT22;17497;51.476;7.770;2023-08-06T02:27:33;15.00;99.90
30764;DHT22;17497;51.476;7.770;2023-08-06T02:30:01;15.00;99.90
30764;DHT22;17497;51.476;7.770;2023-08-06T02:32:31;14.90;99.90
30764;DHT22;17497;51.476;7.770;2023-08-06T02:35:02;15.00;99.90
30764;DHT22;17497;51.476;7.770;2023-08-06T02:37:41;14.90;99.90
30764;DHT22;17497;51.476;7.770;2023-08-06T02:40:23;14.90;99.90
30764;DHT22;17497;51.476;7.770;2023-08-06T02:42:55;14.90;99.90
30764;DHT22;17497;51.476;7.770;2023-08-06T02:45:22;14.90;99.90
30764;DHT22;17497;51.476;7.770;2023-08-06T02:47:58;14.90;99.90
30764;DHT22;17497;51.476;7.770;2023-08-06T02:50:25;14.90;99.90
30764;DHT22;17497;51.476;7.770;2023-08-06T02:52:55;14.90;99.90
30764;DHT22;17497;51.476;7.770;2023-08-06T02:55:25;14.80;99.90
30764;DHT22;17497;51.476;7.770;2023-08-06T02:57:59;14.80;99.90
30764;DHT22;17497;51.476;7.770;2023-08-06T03:00:35;14.80;99.90
30764;DHT22;17497;51.476;7.770;2023-08-06T03:03:02;14.80;99.90
30764;DHT22;17497;51.476;7.770;2023-08-06T03:05:32;14.80;99.90
30764;DHT22;17497;51.476;7.770;2023-08-06T03:08:05;14.80;99.90
30764;DHT22;17497;51.476;7.770;2023-08-06T03:10:32;14.80;99.90
30764;DHT22;17497;51.476;7.770;2023-08-06T03:13:02;14.80;99.90
30764;DHT22;17497;51.476;7.770;2023-08-06T03:15:52;14.80;99.90
30764;DHT22;17497;51.476;7.770;2023-08-06T03:18:31;14.80;99.90
30764;DHT22;17497;51.476;7.770;2023-08-06T03:20:59;14.80;99.90
30764;DHT22;17497;51.476;7.770;2023-08-06T03:23:27;14.80;99.90
30764;DHT22;17497;51.476;7.770;2023-08-06T03:26:05;14.80;99.90
30764;DHT22;17497;51.476;7.770;2023-08-06T03:28:38;14.80;99.90
30764;DHT22;17497;51.476;7.770;2023-08-06T03:31:06;14.80;99.90
30764;DHT22;17497;51.476;7.770;2023-08-06T03:33:33;14.70;99.90
30764;DHT22;17497;51.476;7.770;2023-08-06T03:36:09;14.80;99.90
30764;DHT22;17497;51.476;7.770;2023-08-06T03:38:37;14.80;99.90
30764;DHT22;17497;51.476;7.770;2023-08-06T03:41:04;14.80;99.90
30764;DHT22;17497;51.476;7.770;2023-08-06T03:43:31;14.80;99.90
30764;DHT22;17497;51.476;7.770;2023-08-06T03:46:04;14.80;99.90
30764;DHT22;17497;51.476;7.770;2023-08-06T03:48:31;14.80;99.90
30764;DHT22;17497;51.476;7.770;2023-08-06T03:50:58;14.70;99.90
30764;DHT22;17497;51.476;7.770;2023-08-06T03:53:27;14.80;99.90
30764;DHT22;17497;51.476;7.770;2023-08-06T03:55:54;14.70;99.90
30764;DHT22;17497;51.476;7.770;2023-08-06T03:58:26;14.70;99.90
30764;DHT22;17497;51.476;7.770;2023-08-06T04:01:03;14.70;99.90
30764;DHT22;17497;51.476;7.770;2023-08-06T04:03:33;14.70;99.90
30764;DHT22;17497;51.476;7.770;2023-08-06T04:06:04;14.70;99.90
30764;DHT22;17497;51.476;7.770;2023-08-06T04:08:39;14.70;99.90
30764;DHT22;17497;51.476;7.770;2023-08-06T04:11:07;14.70;99.90
30764;DHT22;17497;51.476;7.770;2023-08-06T04:13:34;14.70;99.90
30764;DHT22;17497;51.476;7.770;2023-08-06T04:16:02;14.80;99.90
30764;DHT22;17497;51.476;7.770;2023-08-06T04:18:32;14.80;99.90
30764;DHT22;17497;51.476;7.770;2023-08-06T04:21:11;14.80;99.90
30764;DHT22;17497;51.476;7.770;2023-08-06T04:23:48;14.80;99.90
30764;DHT22;17497;51.476;7.770;2023-08-06T04:26:23;14.80;99.90
30764;DHT22;17497;51.476;7.770;2023-08-06T04:28:53;14.80;99.90
30764;DHT22;17497;51.476;7.770;2023-08-06T04:31:23;14.80;99.90
30764;DHT22;17497;51.476;7.770;2023-08-06T04:33:50;14.80;99.90
30764;DHT22;17497;51.476;7.770;2023-08-06T04:36:23;14.80;99.90
30764;DHT22;17497;51.476;7.770;2023-08-06T04:38:50;14.80;99.90
30764;DHT22;17497;51.476;7.770;2023-08-06T04:41:19;14.90;99.90
30764;DHT22;17497;51.476;7.770;2023-08-06T04:43:47;14.80;99.90
30764;DHT22;17497;51.476;7.770;2023-08-06T04:46:13;14.90;99.90
30764;DHT22;17497;51.476;7.770;2023-08-06T04:48:40;14.90;99.90
30764;DHT22;17497;51.476;7.770;2023-08-06T04:51:07;14.90;99.90
30764;DHT22;17497;51.476;7.770;2023-08-06T04:53:34;14.90;99.90
30764;DHT22;17497;51.476;7.770;2023-08-06T04:56:01;14.90;99.90
30764;DHT22;17497;51.476;7.770;2023-08-06T04:58:29;15.00;99.90
30764;DHT22;17497;51.476;7.770;2023-08-06T05:00:55;15.00;99.90
30764;DHT22;17497;51.476;7.770;2023-08-06T05:03:23;15.00;99.90
30764;DHT22;17497;51.476;7.770;2023-08-06T05:05:50;15.00;99.90
30764;DHT22;17497;51.476;7.770;2023-08-06T05:08:17;15.00;99.90
30764;DHT22;17497;51.476;7.770;2023-08-06T05:10:45;15.00;99.90
30764;DHT22;17497;51.476;7.770;2023-08-06T05:13:12;15.10;99.90
30764;DHT22;17497;51.476;7.770;2023-08-06T05:15:42;15.10;99.90
30764;DHT22;17497;51.476;7.770;2023-08-06T05:18:12;15.10;99.90
30764;DHT22;17497;51.476;7.770;2023-08-06T05:20:42;15.10;99.90
30764;DHT22;17497;51.476;7.770;2023-08-06T05:23:09;15.10;99.90
30764;DHT22;17497;51.476;7.770;2023-08-06T05:25:36;15.10;99.90
30764;DHT22;17497;51.476;7.770;2023-08-06T05:28:03;15.20;99.90
30764;DHT22;17497;51.476;7.770;2023-08-06T05:30:31;15.20;99.90
30764;DHT22;17497;51.476;7.770;2023-08-06T05:32:58;15.30;99.90
30764;DHT22;17497;51.476;7.770;2023-08-06T05:35:25;15.30;99.90
30764;DHT22;17497;51.476;7.770;2023-08-06T05:37:53;15.40;99.90
30764;DHT22;17497;51.476;7.770;2023-08-06T05:40:20;15.40;99.90
30764;DHT22;17497;51.476;7.770;2023-08-06T05:42:47;15.50;99.90
30764;DHT22;17497;51.476;7.770;2023-08-06T05:45:14;15.50;99.90
30764;DHT22;17497;51.476;7.770;2023-08-06T05:47:43;15.50;99.90
30764;DHT22;17497;51.476;7.770;2023-08-06T05:50:10;15.50;99.90
30764;DHT22;17497;51.476;7.770;2023-08-06T05:52:37;15.40;99.90
30764;DHT22;17497;51.476;7.770;2023-08-06T05:55:05;15.40;99.90
30764;DHT22;17497;51.476;7.770;2023-08-06T05:57:32;15.40;99.90
30764;DHT22;17497;51.476;7.770;2023-08-06T06:00:00;15.40;99.90
30764;DHT22;17497;51.476;7.770;2023-08-06T06:02:59;15.30;99.90
30764;DHT22;17497;51.476;7.770;2023-08-06T06:05:26;15.30;99.90
30764;DHT22;17497;51.476;7.770;2023-08-06T06:07:53;15.30;99.90
30764;DHT22;17497;51.476;7.770;2023-08-06T06:10:20;15.30;99.90
30764;DHT22;17497;51.476;7.770;2023-08-06T06:12:50;15.20;99.90
30764;DHT22;17497;51.476;7.770;2023-08-06T06:15:20;15.20;99.90
30764;DHT22;17497;51.476;7.770;2023-08-06T06:17:51;15.20;99.90
30764;DHT22;17497;51.476;7.770;2023-08-06T06:20:40;15.20;99.90
30764;DHT22;17497;51.476;7.770;2023-08-06T06:23:20;15.30;99.90
30764;DHT22;17497;51.476;7.770;2023-08-06T06:25:48;15.40;99.90
30764;DHT22;17497;51.476;7.770;2023-08-06T06:28:25;15.50;99.90
30764;DHT22;17497;51.476;7.770;2023-08-06T06:31:00;15.50;99.90
30764;DHT22;17497;51.476;7.770;2023-08-06T06:33:28;15.60;99.90
30764;DHT22;17497;51.476;7.770;2023-08-06T06:36:01;15.70;99.90
30764;DHT22;17497;51.476;7.770;2023-08-06T06:38:34;15.70;99.90
30764;DHT22;17497;51.476;7.770;2023-08-06T06:41:04;15.80;99.90
30764;DHT22;17497;51.476;7.770;2023-08-06T06:43:32;15.80;99.90
30764;DHT22;17497;51.476;7.770;2023-08-06T06:45:59;15.80;99.90
30764;DHT22;17497;51.476;7.770;2023-08-06T06:48:32;15.80;99.90
30764;DHT22;17497;51.476;7.770;2023-08-06T06:50:59;15.90;99.90
30764;DHT22;17497;51.476;7.770;2023-08-06T06:53:33;15.90;99.90
30764;DHT22;17497;51.476;7.770;2023-08-06T06:56:06;16.00;99.90
30764;DHT22;17497;51.476;7.770;2023-08-06T06:58:33;16.00;99.90
30764;DHT22;17497;51.476;7.770;2023-08-06T07:01:03;16.20;99.90
30764;DHT22;17497;51.476;7.770;2023-08-06T07:03:33;16.30;99.90
30764;DHT22;17497;51.476;7.770;2023-08-06T07:06:13;16.40;99.90
30764;DHT22;17497;51.476;7.770;2023-08-06T07:08:48;16.50;99.90
30764;DHT22;17497;51.476;7.770;2023-08-06T07:11:15;16.70;99.90
30764;DHT22;17497;51.476;7.770;2023-08-06T07:13:45;16.80;99.90
30764;DHT22;17497;51.476;7.770;2023-08-06T07:16:12;16.90;99.90
30764;DHT22;17497;51.476;7.770;2023-08-06T07:18:39;17.00;99.90
30764;DHT22;17497;51.476;7.770;2023-08-06T07:21:06;17.00;99.90
30764;DHT22;17497;51.476;7.770;2023-08-06T07:23:55;17.10;99.90
30764;DHT22;17497;51.476;7.770;2023-08-06T07:26:35;17.20;99.90
30764;DHT22;17497;51.476;7.770;2023-08-06T07:29:13;17.30;99.90
30764;DHT22;17497;51.476;7.770;2023-08-06T07:31:43;17.30;99.90
30764;DHT22;17497;51.476;7.770;2023-08-06T07:34:10;17.30;99.90
30764;DHT22;17497;51.476;7.770;2023-08-06T07:37:05;17.40;99.90
30764;DHT22;17497;51.476;7.770;2023-08-06T07:40:06;17.40;99.90
30764;DHT22;17497;51.476;7.770;2023-08-06T08:11:13;17.80;99.90
30764;DHT22;17497;51.476;7.770;2023-08-06T08:22:04;18.20;99.90
30764;DHT22;17497;51.476;7.770;2023-08-06T08:28:26;18.40;99.90
30764;DHT22;17497;51.476;7.770;2023-08-06T08:30:56;18.30;99.90
30764;DHT22;17497;51.476;7.770;2023-08-06T08:33:27;18.30;99.90
30764;DHT22;17497;51.476;7.770;2023-08-06T08:35:56;18.30;99.90
30764;DHT22;17497;51.476;7.770;2023-08-06T08:38:36;18.30;99.90
30764;DHT22;17497;51.476;7.770;2023-08-06T08:41:03;18.30;99.90
30764;DHT22;17497;51.476;7.770;2023-08-06T08:43:30;18.40;99.90
30764;DHT22;17497;51.476;7.770;2023-08-06T08:45:59;18.50;99.90
30764;DHT22;17497;51.476;7.770;2023-08-06T08:48:31;18.50;99.90
30764;DHT22;17497;51.476;7.770;2023-08-06T08:51:01;18.50;99.90
30764;DHT22;17497;51.476;7.770;2023-08-06T08:53:28;18.50;99.90
30764;DHT22;17497;51.476;7.770;2023-08-06T08:55:55;18.50;99.90
30764;DHT22;17497;51.476;7.770;2023-08-06T08:58:22;18.50;99.90
30764;DHT22;17497;51.476;7.770;2023-08-06T09:00:49;18.40;99.90
30764;DHT22;17497;51.476;7.770;2023-08-06T09:03:18;18.40;99.90
30764;DHT22;17497;51.476;7.770;2023-08-06T09:05:55;18.40;99.90
30764;DHT22;17497;51.476;7.770;2023-08-06T09:08:27;18.50;99.90
30764;DHT22;17497;51.476;7.770;2023-08-06T09:11:02;18.50;99.90
30764;DHT22;17497;51.476;7.770;2023-08-06T09:13:29;18.60;99.90
30764;DHT22;17497;51.476;7.770;2023-08-06T09:15:56;18.60;99.90
30764;DHT22;17497;51.476;7.770;2023-08-06T09:18:27;18.60;99.90
30764;DHT22;17497;51.476;7.770;2023-08-06T09:20:56;18.70;99.90
30764;DHT22;17497;51.476;7.770;2023-08-06T09:23:32;18.70;99.90
30764;DHT22;17497;51.476;7.770;2023-08-06T09:26:02;18.70;99.90
30764;DHT22;17497;51.476;7.770;2023-08-06T09:28:39;18.70;99.90
30764;DHT22;17497;51.476;7.770;2023-08-06T09:31:16;18.80;99.90
30764;DHT22;17497;51.476;7.770;2023-08-06T09:33:43;18.90;99.90
30764;DHT22;17497;51.476;7.770;2023-08-06T09:36:11;19.10;99.90
30764;DHT22;17497;51.476;7.770;2023-08-06T09:38:40;19.40;99.90
30764;DHT22;17497;51.476;7.770;2023-08-06T09:41:07;19.70;99.90
30764;DHT22;17497;51.476;7.770;2023-08-06T09:43:42;20.00;99.90
30764;DHT22;17497;51.476;7.770;2023-08-06T09:46:18;20.40;99.90
30764;DHT22;17497;51.476;7.770;2023-08-06T09:48:50;21.00;99.90
30764;DHT22;17497;51.476;7.770;2023-08-06T09:51:27;21.40;99.90
30764;DHT22;17497;51.476;7.770;2023-08-06T09:53:57;21.70;99.90
30764;DHT22;17497;51.476;7.770;2023-08-06T09:56:28;22.00;99.90
30764;DHT22;17497;51.476;7.770;2023-08-06T09:58:55;21.50;99.90
30764;DHT22;17497;51.476;7.770;2023-08-06T10:01:23;21.10;99.90
30764;DHT22;17497;51.476;7.770;2023-08-06T10:03:51;20.90;99.90
30764;DHT22;17497;51.476;7.770;2023-08-06T10:06:21;20.40;99.90
30764;DHT22;17497;51.476;7.770;2023-08-06T10:08:57;19.80;99.90
30764;DHT22;17497;51.476;7.770;2023-08-06T10:11:26;19.40;99.90
30764;DHT22;17497;51.476;7.770;2023-08-06T10:13:57;19.30;99.90
30764;DHT22;17497;51.476;7.770;2023-08-06T10:16:25;19.00;99.90
30764;DHT22;17497;51.476;7.770;2023-08-06T10:19:04;18.70;99.90
30764;DHT22;17497;51.476;7.770;2023-08-06T10:22:15;18.50;99.90
30764;DHT22;17497;51.476;7.770;2023-08-06T10:24:53;18.10;99.90
30764;DHT22;17497;51.476;7.770;2023-08-06T10:27:53;17.80;99.90
30764;DHT22;17497;51.476;7.770;2023-08-06T10:30:28;17.60;99.90
30764;DHT22;17497;51.476;7.770;2023-08-06T10:32:58;17.40;99.90
30764;DHT22;17497;51.476;7.770;2023-08-06T10:37:58;17.20;99.90
30764;DHT22;17497;51.476;7.770;2023-08-06T10:40:25;17.20;99.90
30764;DHT22;17497;51.476;7.770;2023-08-06T10:42:53;17.10;99.90
30764;DHT22;17497;51.476;7.770;2023-08-06T10:45:20;17.10;99.90
30764;DHT22;17497;51.476;7.770;2023-08-06T10:47:52;17.10;99.90
30764;DHT22;17497;51.476;7.770;2023-08-06T10:50:44;17.10;99.90
30764;DHT22;17497;51.476;7.770;2023-08-06T10:53:12;17.20;99.90
30764;DHT22;17497;51.476;7.770;2023-08-06T10:55:40;17.20;99.90
30764;DHT22;17497;51.476;7.770;2023-08-06T10:58:09;17.30;99.90
30764;DHT22;17497;51.476;7.770;2023-08-06T11:00:46;17.40;99.90
30764;DHT22;17497;51.476;7.770;2023-08-06T11:03:14;17.60;99.90
30764;DHT22;17497;51.476;7.770;2023-08-06T11:05:41;17.70;99.90
30764;DHT22;17497;51.476;7.770;2023-08-06T11:08:24;17.80;99.90
30764;DHT22;17497;51.476;7.770;2023-08-06T11:10:51;17.90;99.90
30764;DHT22;17497;51.476;7.770;2023-08-06T11:13:29;18.10;99.90
30764;DHT22;17497;51.476;7.770;2023-08-06T11:16:05;18.20;99.90
30764;DHT22;17497;51.476;7.770;2023-08-06T11:18:35;18.30;99.90
30764;DHT22;17497;51.476;7.770;2023-08-06T11:21:02;18.50;99.90
30764;DHT22;17497;51.476;7.770;2023-08-06T11:23:32;18.70;99.90
30764;DHT22;17497;51.476;7.770;2023-08-06T11:26:03;18.90;99.90
30764;DHT22;17497;51.476;7.770;2023-08-06T11:28:35;19.20;99.90
30764;DHT22;17497;51.476;7.770;2023-08-06T11:31:05;19.60;99.90
30764;DHT22;17497;51.476;7.770;2023-08-06T11:33:32;20.20;99.90
30764;DHT22;17497;51.476;7.770;2023-08-06T11:36:02;21.00;99.90
30764;DHT22;17497;51.476;7.770;2023-08-06T11:38:37;21.60;99.90
30764;DHT22;17497;51.476;7.770;2023-08-06T11:41:17;21.90;99.90
30764;DHT22;17497;51.476;7.770;2023-08-06T11:43:46;21.40;99.90
30764;DHT22;17497;51.476;7.770;2023-08-06T11:46:23;21.00;99.90
30764;DHT22;17497;51.476;7.770;2023-08-06T11:48:57;20.30;99.90
30764;DHT22;17497;51.476;7.770;2023-08-06T11:51:26;19.50;99.90
30764;DHT22;17497;51.476;7.770;2023-08-06T11:53:58;19.10;99.90
30764;DHT22;17497;51.476;7.770;2023-08-06T11:56:28;18.60;99.90
30764;DHT22;17497;51.476;7.770;2023-08-06T11:58:55;18.40;99.90
30764;DHT22;17497;51.476;7.770;2023-08-06T12:01:22;18.20;99.90
30764;DHT22;17497;51.476;7.770;2023-08-06T12:03:52;18.10;99.90
30764;DHT22;17497;51.476;7.770;2023-08-06T12:06:27;18.10;99.90
30764;DHT22;17497;51.476;7.770;2023-08-06T12:08:54;18.10;99.90
30764;DHT22;17497;51.476;7.770;2023-08-06T12:11:24;18.10;99.90
30764;DHT22;17497;51.476;7.770;2023-08-06T12:13:51;17.90;99.90
30764;DHT22;17497;51.476;7.770;2023-08-06T12:16:19;18.00;99.90
30764;DHT22;17497;51.476;7.770;2023-08-06T12:18:47;17.90;99.90
30764;DHT22;17497;51.476;7.770;2023-08-06T12:21:16;17.90;99.90
30764;DHT22;17497;51.476;7.770;2023-08-06T12:23:43;17.90;99.90
30764;DHT22;17497;51.476;7.770;2023-08-06T12:26:10;17.90;99.90
30764;DHT22;17497;51.476;7.770;2023-08-06T12:28:37;17.80;99.90
30764;DHT22;17497;51.476;7.770;2023-08-06T12:31:03;17.80;99.90
30764;DHT22;17497;51.476;7.770;2023-08-06T12:33:31;17.90;99.90
30764;DHT22;17497;51.476;7.770;2023-08-06T12:35:58;17.80;99.90
30764;DHT22;17497;51.476;7.770;2023-08-06T12:38:27;17.80;99.90
30764;DHT22;17497;51.476;7.770;2023-08-06T12:41:01;18.00;99.90
30764;DHT22;17497;51.476;7.770;2023-08-06T12:43:32;17.90;99.90
30764;DHT22;17497;51.476;7.770;2023-08-06T12:46:01;17.90;99.90
30764;DHT22;17497;51.476;7.770;2023-08-06T12:48:28;17.90;99.90
30764;DHT22;17497;51.476;7.770;2023-08-06T12:50:55;17.80;99.90
30764;DHT22;17497;51.476;7.770;2023-08-06T12:53:22;17.90;99.90
30764;DHT22;17497;51.476;7.770;2023-08-06T12:55:50;18.00;99.90
30764;DHT22;17497;51.476;7.770;2023-08-06T12:58:19;18.00;99.90
30764;DHT22;17497;51.476;7.770;2023-08-06T13:00:46;18.10;99.90
30764;DHT22;17497;51.476;7.770;2023-08-06T13:03:13;18.10;99.90
30764;DHT22;17497;51.476;7.770;2023-08-06T13:05:41;18.20;99.90
30764;DHT22;17497;51.476;7.770;2023-08-06T13:08:08;18.20;99.90
30764;DHT22;17497;51.476;7.770;2023-08-06T13:10:45;18.30;99.90
30764;DHT22;17497;51.476;7.770;2023-08-06T13:13:21;18.30;99.90
30764;DHT22;17497;51.476;7.770;2023-08-06T13:16:11;18.30;99.90
30764;DHT22;17497;51.476;7.770;2023-08-06T13:18:52;18.20;99.90
30764;DHT22;17497;51.476;7.770;2023-08-06T13:21:19;18.10;99.90
30764;DHT22;17497;51.476;7.770;2023-08-06T13:23:46;17.60;99.90
30764;DHT22;17497;51.476;7.770;2023-08-06T13:26:14;17.20;99.90
30764;DHT22;17497;51.476;7.770;2023-08-06T13:28:45;16.60;99.90
30764;DHT22;17497;51.476;7.770;2023-08-06T13:31:14;16.00;99.90
30764;DHT22;17497;51.476;7.770;2023-08-06T13:33:41;15.60;99.90
30764;DHT22;17497;51.476;7.770;2023-08-06T13:36:07;15.40;99.90
30764;DHT22;17497;51.476;7.770;2023-08-06T13:38:34;15.20;99.90
30764;DHT22;17497;51.476;7.770;2023-08-06T13:41:02;15.00;99.90
30764;DHT22;17497;51.476;7.770;2023-08-06T13:43:32;14.90;99.90
30764;DHT22;17497;51.476;7.770;2023-08-06T13:45:59;14.90;99.90
30764;DHT22;17497;51.476;7.770;2023-08-06T13:48:28;14.80;99.90
30764;DHT22;17497;51.476;7.770;2023-08-06T13:50:55;14.80;99.90
30764;DHT22;17497;51.476;7.770;2023-08-06T13:53:22;14.60;99.90
30764;DHT22;17497;51.476;7.770;2023-08-06T13:55:49;14.50;99.90
30764;DHT22;17497;51.476;7.770;2023-08-06T13:58:16;14.50;99.90
30764;DHT22;17497;51.476;7.770;2023-08-06T14:00:43;14.50;99.90
30764;DHT22;17497;51.476;7.770;2023-08-06T14:03:10;14.40;99.90
30764;DHT22;17497;51.476;7.770;2023-08-06T14:05:38;14.40;99.90
30764;DHT22;17497;51.476;7.770;2023-08-06T14:08:05;14.30;99.90
30764;DHT22;17497;51.476;7.770;2023-08-06T14:10:35;14.20;99.90
30764;DHT22;17497;51.476;7.770;2023-08-06T14:13:02;14.10;99.90
30764;DHT22;17497;51.476;7.770;2023-08-06T14:15:37;14.10;99.90
30764;DHT22;17497;51.476;7.770;2023-08-06T14:18:09;14.00;99.90
30764;DHT22;17497;51.476;7.770;2023-08-06T14:20:36;14.10;99.90
30764;DHT22;17497;51.476;7.770;2023-08-06T14:23:13;14.00;99.90
30764;DHT22;17497;51.476;7.770;2023-08-06T14:25:43;14.10;99.90
30764;DHT22;17497;51.476;7.770;2023-08-06T14:28:10;14.10;99.90
30764;DHT22;17497;51.476;7.770;2023-08-06T14:30:52;14.10;99.90
30764;DHT22;17497;51.476;7.770;2023-08-06T14:33:26;14.10;99.90
30764;DHT22;17497;51.476;7.770;2023-08-06T14:35:54;14.10;99.90
30764;DHT22;17497;51.476;7.770;2023-08-06T14:38:25;14.10;99.90
30764;DHT22;17497;51.476;7.770;2023-08-06T14:41:25;14.10;99.90
30764;DHT22;17497;51.476;7.770;2023-08-06T14:43:52;14.10;99.90
30764;DHT22;17497;51.476;7.770;2023-08-06T14:46:20;14.10;99.90
30764;DHT22;17497;51.476;7.770;2023-08-06T14:48:48;14.10;99.90
30764;DHT22;17497;51.476;7.770;2023-08-06T14:51:15;14.10;99.90
30764;DHT22;17497;51.476;7.770;2023-08-06T14:53:42;14.10;99.90
30764;DHT22;17497;51.476;7.770;2023-08-06T14:56:08;14.20;99.90
30764;DHT22;17497;51.476;7.770;2023-08-06T14:58:35;14.20;99.90
30764;DHT22;17497;51.476;7.770;2023-08-06T15:01:02;14.20;99.90
30764;DHT22;17497;51.476;7.770;2023-08-06T15:03:29;14.20;99.90
30764;DHT22;17497;51.476;7.770;2023-08-06T15:05:58;14.20;99.90
30764;DHT22;17497;51.476;7.770;2023-08-06T15:08:25;14.10;99.90
30764;DHT22;17497;51.476;7.770;2023-08-06T15:10:53;14.10;99.90
30764;DHT22;17497;51.476;7.770;2023-08-06T15:13:20;14.10;99.90
30764;DHT22;17497;51.476;7.770;2023-08-06T15:15:48;14.10;99.90
30764;DHT22;17497;51.476;7.770;2023-08-06T15:18:14;14.00;99.90
30764;DHT22;17497;51.476;7.770;2023-08-06T15:20:41;14.00;99.90
30764;DHT22;17497;51.476;7.770;2023-08-06T15:23:08;14.00;99.90
30764;DHT22;17497;51.476;7.770;2023-08-06T15:25:35;13.90;99.90
30764;DHT22;17497;51.476;7.770;2023-08-06T15:28:02;13.90;99.90
30764;DHT22;17497;51.476;7.770;2023-08-06T15:30:29;13.90;99.90
30764;DHT22;17497;51.476;7.770;2023-08-06T15:32:56;13.90;99.90
30764;DHT22;17497;51.476;7.770;2023-08-06T15:35:22;13.90;99.90
30764;DHT22;17497;51.476;7.770;2023-08-06T15:37:49;13.90;99.90
30764;DHT22;17497;51.476;7.770;2023-08-06T15:40:16;13.90;99.90
30764;DHT22;17497;51.476;7.770;2023-08-06T15:42:44;14.00;99.90
30764;DHT22;17497;51.476;7.770;2023-08-06T15:45:10;14.00;99.90
30764;DHT22;17497;51.476;7.770;2023-08-06T15:47:37;14.00;99.90
30764;DHT22;17497;51.476;7.770;2023-08-06T15:50:10;14.00;99.90
30764;DHT22;17497;51.476;7.770;2023-08-06T15:52:37;14.00;99.90
30764;DHT22;17497;51.476;7.770;2023-08-06T15:55:05;14.10;99.90
30764;DHT22;17497;51.476;7.770;2023-08-06T15:57:34;14.10;99.90
30764;DHT22;17497;51.476;7.770;2023-08-06T16:00:03;14.10;99.90
30764;DHT22;17497;51.476;7.770;2023-08-06T16:02:32;14.10;99.90
30764;DHT22;17497;51.476;7.770;2023-08-06T16:04:59;14.10;99.90
30764;DHT22;17497;51.476;7.770;2023-08-06T16:07:26;14.10;99.90
30764;DHT22;17497;51.476;7.770;2023-08-06T16:09:54;14.10;99.90
30764;DHT22;17497;51.476;7.770;2023-08-06T16:12:21;14.10;99.90
30764;DHT22;17497;51.476;7.770;2023-08-06T16:14:49;14.00;99.90
30764;DHT22;17497;51.476;7.770;2023-08-06T16:17:16;14.00;99.90
30764;DHT22;17497;51.476;7.770;2023-08-06T16:19:47;14.00;99.90
30764;DHT22;17497;51.476;7.770;2023-08-06T16:22:13;14.00;99.90
30764;DHT22;17497;51.476;7.770;2023-08-06T16:24:40;14.00;99.90
30764;DHT22;17497;51.476;7.770;2023-08-06T16:27:11;14.00;99.90
30764;DHT22;17497;51.476;7.770;2023-08-06T16:29:38;14.00;99.90
30764;DHT22;17497;51.476;7.770;2023-08-06T16:32:09;14.00;99.90
30764;DHT22;17497;51.476;7.770;2023-08-06T16:34:42;14.00;99.90